sensor_id;sensor_type;location;lat;lon;timestamp;P1;durP1;ratioP1;P2;durP2;ratioP2
42670;SDS011;28283;55.426;37.756;2023-06-14T00:02:00;19.95;;;4.50;;
42670;SDS011;28283;55.426;37.756;2023-06-14T00:07:01;8.77;;;5.13;;
42670;SDS011;28283;55.426;37.756;2023-06-14T00:12:02;13.00;;;4.70;;
42670;SDS011;28283;55.426;37.756;2023-06-14T00:17:03;11.05;;;4.60;;
42670;SDS011;28283;55.426;37.756;2023-06-14T00:22:04;13.13;;;4.68;;
42670;SDS011;28283;55.426;37.756;2023-06-14T00:27:05;11.63;;;4.43;;
42670;SDS011;28283;55.426;37.756;2023-06-14T00:32:05;11.60;;;4.88;;
42670;SDS011;28283;55.426;37.756;2023-06-14T00:37:06;9.10;;;4.28;;
42670;SDS011;28283;55.426;37.756;2023-06-14T00:42:07;12.93;;;4.10;;
42670;SDS011;28283;55.426;37.756;2023-06-14T00:47:08;8.73;;;3.70;;
42670;SDS011;28283;55.426;37.756;2023-06-14T00:52:08;6.93;;;3.88;;
42670;SDS011;28283;55.426;37.756;2023-06-14T00:57:12;11.48;;;3.95;;
42670;SDS011;28283;55.426;37.756;2023-06-14T01:02:13;12.30;;;4.27;;
42670;SDS011;28283;55.426;37.756;2023-06-14T01:12:39;10.57;;;4.63;;
42670;SDS011;28283;55.426;37.756;2023-06-14T01:17:44;10.50;;;4.38;;
42670;SDS011;28283;55.426;37.756;2023-06-14T01:22:50;7.95;;;4.50;;
42670;SDS011;28283;55.426;37.756;2023-06-14T01:27:53;9.93;;;4.50;;
42670;SDS011;28283;55.426;37.756;2023-06-14T01:33:01;14.90;;;4.65;;
42670;SDS011;28283;55.426;37.756;2023-06-14T01:38:02;9.73;;;4.57;;
42670;SDS011;28283;55.426;37.756;2023-06-14T01:43:04;12.85;;;5.10;;
42670;SDS011;28283;55.426;37.756;2023-06-14T01:48:07;9.75;;;5.03;;
42670;SDS011;28283;55.426;37.756;2023-06-14T01:53:08;7.45;;;4.18;;
42670;SDS011;28283;55.426;37.756;2023-06-14T01:58:10;11.60;;;4.22;;
42670;SDS011;28283;55.426;37.756;2023-06-14T02:03:11;9.73;;;4.72;;
42670;SDS011;28283;55.426;37.756;2023-06-14T02:08:13;8.70;;;4.60;;
42670;SDS011;28283;55.426;37.756;2023-06-14T02:13:14;10.63;;;5.47;;
42670;SDS011;28283;55.426;37.756;2023-06-14T02:18:14;13.55;;;5.68;;
42670;SDS011;28283;55.426;37.756;2023-06-14T02:23:16;15.98;;;5.18;;
42670;SDS011;28283;55.426;37.756;2023-06-14T02:28:17;16.07;;;6.73;;
42670;SDS011;28283;55.426;37.756;2023-06-14T02:33:17;15.77;;;7.23;;
42670;SDS011;28283;55.426;37.756;2023-06-14T02:38:18;17.63;;;6.30;;
42670;SDS011;28283;55.426;37.756;2023-06-14T02:43:19;20.45;;;7.40;;
42670;SDS011;28283;55.426;37.756;2023-06-14T02:48:21;18.02;;;7.15;;
42670;SDS011;28283;55.426;37.756;2023-06-14T02:53:22;19.35;;;8.30;;
42670;SDS011;28283;55.426;37.756;2023-06-14T02:58:22;18.13;;;6.70;;
42670;SDS011;28283;55.426;37.756;2023-06-14T03:03:25;21.27;;;9.52;;
42670;SDS011;28283;55.426;37.756;2023-06-14T03:08:26;49.58;;;10.20;;
42670;SDS011;28283;55.426;37.756;2023-06-14T03:13:29;44.85;;;11.23;;
42670;SDS011;28283;55.426;37.756;2023-06-14T03:18:32;62.33;;;12.18;;
42670;SDS011;28283;55.426;37.756;2023-06-14T03:23:35;43.45;;;10.60;;
42670;SDS011;28283;55.426;37.756;2023-06-14T03:28:36;35.07;;;9.80;;
42670;SDS011;28283;55.426;37.756;2023-06-14T03:33:36;43.43;;;11.50;;
42670;SDS011;28283;55.426;37.756;2023-06-14T03:38:37;31.58;;;11.27;;
42670;SDS011;28283;55.426;37.756;2023-06-14T03:43:37;29.83;;;10.48;;
42670;SDS011;28283;55.426;37.756;2023-06-14T03:48:38;26.65;;;10.10;;
42670;SDS011;28283;55.426;37.756;2023-06-14T03:53:39;23.52;;;7.50;;
42670;SDS011;28283;55.426;37.756;2023-06-14T03:58:40;21.92;;;8.23;;
42670;SDS011;28283;55.426;37.756;2023-06-14T04:03:41;24.90;;;7.88;;
42670;SDS011;28283;55.426;37.756;2023-06-14T04:08:41;27.02;;;8.60;;
42670;SDS011;28283;55.426;37.756;2023-06-14T04:13:42;24.20;;;8.25;;
42670;SDS011;28283;55.426;37.756;2023-06-14T04:18:42;39.10;;;9.80;;
42670;SDS011;28283;55.426;37.756;2023-06-14T04:23:43;21.70;;;7.30;;
42670;SDS011;28283;55.426;37.756;2023-06-14T04:28:44;22.33;;;6.55;;
42670;SDS011;28283;55.426;37.756;2023-06-14T04:38:46;28.60;;;6.97;;
42670;SDS011;28283;55.426;37.756;2023-06-14T04:43:49;35.78;;;7.35;;
42670;SDS011;28283;55.426;37.756;2023-06-14T04:48:49;29.70;;;7.70;;
42670;SDS011;28283;55.426;37.756;2023-06-14T04:53:50;21.33;;;5.72;;
42670;SDS011;28283;55.426;37.756;2023-06-14T05:03:53;19.70;;;5.93;;
42670;SDS011;28283;55.426;37.756;2023-06-14T05:13:54;16.07;;;5.53;;
42670;SDS011;28283;55.426;37.756;2023-06-14T05:18:55;11.40;;;4.13;;
42670;SDS011;28283;55.426;37.756;2023-06-14T05:28:57;16.30;;;4.40;;
42670;SDS011;28283;55.426;37.756;2023-06-14T05:38:58;11.63;;;3.00;;
42670;SDS011;28283;55.426;37.756;2023-06-14T05:44:00;5.50;;;3.10;;
42670;SDS011;28283;55.426;37.756;2023-06-14T05:49:01;11.75;;;3.10;;
42670;SDS011;28283;55.426;37.756;2023-06-14T05:54:03;5.25;;;2.28;;
42670;SDS011;28283;55.426;37.756;2023-06-14T06:04:05;4.80;;;2.50;;
42670;SDS011;28283;55.426;37.756;2023-06-14T06:09:06;7.28;;;2.15;;
42670;SDS011;28283;55.426;37.756;2023-06-14T06:14:07;4.88;;;1.80;;
42670;SDS011;28283;55.426;37.756;2023-06-14T06:19:07;4.90;;;2.22;;
42670;SDS011;28283;55.426;37.756;2023-06-14T06:24:08;5.30;;;1.73;;
42670;SDS011;28283;55.426;37.756;2023-06-14T06:29:09;2.47;;;1.95;;
42670;SDS011;28283;55.426;37.756;2023-06-14T06:34:10;4.07;;;2.03;;
42670;SDS011;28283;55.426;37.756;2023-06-14T06:39:10;6.00;;;2.42;;
42670;SDS011;28283;55.426;37.756;2023-06-14T06:44:11;9.55;;;2.67;;
42670;SDS011;28283;55.426;37.756;2023-06-14T06:49:12;2.67;;;1.58;;
42670;SDS011;28283;55.426;37.756;2023-06-14T06:54:13;5.10;;;2.00;;
42670;SDS011;28283;55.426;37.756;2023-06-14T06:59:13;1.60;;;1.50;;
42670;SDS011;28283;55.426;37.756;2023-06-14T07:04:16;8.05;;;1.73;;
42670;SDS011;28283;55.426;37.756;2023-06-14T07:09:17;7.78;;;1.75;;
42670;SDS011;28283;55.426;37.756;2023-06-14T07:14:19;2.92;;;1.40;;
42670;SDS011;28283;55.426;37.756;2023-06-14T07:19:22;5.53;;;1.85;;
42670;SDS011;28283;55.426;37.756;2023-06-14T07:24:23;2.92;;;1.48;;
42670;SDS011;28283;55.426;37.756;2023-06-14T07:29:24;1.73;;;1.42;;
42670;SDS011;28283;55.426;37.756;2023-06-14T07:34:24;1.48;;;1.20;;
42670;SDS011;28283;55.426;37.756;2023-06-14T07:39:26;3.83;;;1.98;;
42670;SDS011;28283;55.426;37.756;2023-06-14T07:44:29;4.20;;;1.23;;
42670;SDS011;28283;55.426;37.756;2023-06-14T07:49:31;5.20;;;1.33;;
42670;SDS011;28283;55.426;37.756;2023-06-14T07:54:32;3.75;;;1.58;;
42670;SDS011;28283;55.426;37.756;2023-06-14T07:59:32;4.40;;;1.25;;
42670;SDS011;28283;55.426;37.756;2023-06-14T08:04:33;4.05;;;1.38;;
42670;SDS011;28283;55.426;37.756;2023-06-14T08:09:34;1.58;;;1.40;;
42670;SDS011;28283;55.426;37.756;2023-06-14T08:14:39;3.08;;;1.13;;
42670;SDS011;28283;55.426;37.756;2023-06-14T08:19:40;2.60;;;1.38;;
42670;SDS011;28283;55.426;37.756;2023-06-14T08:24:41;2.50;;;1.17;;
42670;SDS011;28283;55.426;37.756;2023-06-14T08:29:42;4.50;;;1.52;;
42670;SDS011;28283;55.426;37.756;2023-06-14T08:34:43;4.07;;;1.27;;
42670;SDS011;28283;55.426;37.756;2023-06-14T08:39:43;6.22;;;1.38;;
42670;SDS011;28283;55.426;37.756;2023-06-14T08:44:45;4.75;;;1.73;;
42670;SDS011;28283;55.426;37.756;2023-06-14T08:49:46;2.53;;;1.60;;
42670;SDS011;28283;55.426;37.756;2023-06-14T08:54:50;6.40;;;1.80;;
42670;SDS011;28283;55.426;37.756;2023-06-14T08:59:50;3.10;;;1.70;;
42670;SDS011;28283;55.426;37.756;2023-06-14T09:04:54;3.17;;;1.30;;
42670;SDS011;28283;55.426;37.756;2023-06-14T09:10:09;3.50;;;1.20;;
42670;SDS011;28283;55.426;37.756;2023-06-14T09:15:12;2.10;;;1.65;;
42670;SDS011;28283;55.426;37.756;2023-06-14T09:20:14;4.45;;;2.00;;
42670;SDS011;28283;55.426;37.756;2023-06-14T09:25:18;5.30;;;1.60;;
42670;SDS011;28283;55.426;37.756;2023-06-14T09:30:19;4.03;;;1.73;;
42670;SDS011;28283;55.426;37.756;2023-06-14T09:35:21;4.22;;;1.77;;
42670;SDS011;28283;55.426;37.756;2023-06-14T09:40:21;3.30;;;1.88;;
42670;SDS011;28283;55.426;37.756;2023-06-14T09:45:22;3.65;;;1.67;;
42670;SDS011;28283;55.426;37.756;2023-06-14T09:50:24;6.13;;;2.00;;
42670;SDS011;28283;55.426;37.756;2023-06-14T09:55:24;3.22;;;1.63;;
42670;SDS011;28283;55.426;37.756;2023-06-14T10:00:28;3.67;;;1.55;;
42670;SDS011;28283;55.426;37.756;2023-06-14T10:05:31;7.05;;;2.30;;
42670;SDS011;28283;55.426;37.756;2023-06-14T10:10:35;3.53;;;1.92;;
42670;SDS011;28283;55.426;37.756;2023-06-14T10:21:22;3.13;;;2.28;;
42670;SDS011;28283;55.426;37.756;2023-06-14T10:26:29;4.50;;;1.52;;
42670;SDS011;28283;55.426;37.756;2023-06-14T10:31:40;2.97;;;1.52;;
42670;SDS011;28283;55.426;37.756;2023-06-14T10:36:42;4.80;;;1.80;;
42670;SDS011;28283;55.426;37.756;2023-06-14T10:41:53;3.40;;;1.95;;
42670;SDS011;28283;55.426;37.756;2023-06-14T10:46:55;7.20;;;2.08;;
42670;SDS011;28283;55.426;37.756;2023-06-14T10:51:58;2.90;;;1.83;;
42670;SDS011;28283;55.426;37.756;2023-06-14T10:56:59;3.22;;;1.70;;
42670;SDS011;28283;55.426;37.756;2023-06-14T11:12:25;5.90;;;1.80;;
42670;SDS011;28283;55.426;37.756;2023-06-14T11:17:28;4.18;;;1.92;;
42670;SDS011;28283;55.426;37.756;2023-06-14T11:22:30;4.38;;;2.00;;
42670;SDS011;28283;55.426;37.756;2023-06-14T11:27:41;3.22;;;1.67;;
42670;SDS011;28283;55.426;37.756;2023-06-14T11:32:45;3.22;;;2.45;;
42670;SDS011;28283;55.426;37.756;2023-06-14T11:37:47;6.07;;;1.90;;
42670;SDS011;28283;55.426;37.756;2023-06-14T11:42:49;5.50;;;1.63;;
42670;SDS011;28283;55.426;37.756;2023-06-14T11:47:49;2.22;;;2.03;;
42670;SDS011;28283;55.426;37.756;2023-06-14T11:52:54;4.72;;;1.83;;
42670;SDS011;28283;55.426;37.756;2023-06-14T11:57:55;4.75;;;1.70;;
42670;SDS011;28283;55.426;37.756;2023-06-14T12:02:56;3.25;;;2.10;;
42670;SDS011;28283;55.426;37.756;2023-06-14T12:07:58;4.70;;;1.67;;
42670;SDS011;28283;55.426;37.756;2023-06-14T12:13:00;5.53;;;2.90;;
42670;SDS011;28283;55.426;37.756;2023-06-14T12:18:05;2.13;;;1.42;;
42670;SDS011;28283;55.426;37.756;2023-06-14T12:23:08;3.20;;;1.48;;
42670;SDS011;28283;55.426;37.756;2023-06-14T12:28:09;2.22;;;1.35;;
42670;SDS011;28283;55.426;37.756;2023-06-14T12:33:09;4.15;;;1.70;;
42670;SDS011;28283;55.426;37.756;2023-06-14T12:38:11;3.65;;;1.58;;
42670;SDS011;28283;55.426;37.756;2023-06-14T12:43:12;2.75;;;1.77;;
42670;SDS011;28283;55.426;37.756;2023-06-14T12:48:12;5.40;;;1.63;;
42670;SDS011;28283;55.426;37.756;2023-06-14T12:53:13;2.22;;;1.60;;
42670;SDS011;28283;55.426;37.756;2023-06-14T12:58:14;6.00;;;2.03;;
42670;SDS011;28283;55.426;37.756;2023-06-14T13:03:17;6.53;;;1.73;;
42670;SDS011;28283;55.426;37.756;2023-06-14T13:08:18;3.30;;;1.60;;
42670;SDS011;28283;55.426;37.756;2023-06-14T13:13:20;1.50;;;1.40;;
42670;SDS011;28283;55.426;37.756;2023-06-14T13:18:20;4.22;;;1.63;;
42670;SDS011;28283;55.426;37.756;2023-06-14T13:23:21;2.22;;;1.65;;
42670;SDS011;28283;55.426;37.756;2023-06-14T13:28:26;3.08;;;1.80;;
42670;SDS011;28283;55.426;37.756;2023-06-14T13:33:27;3.83;;;1.60;;
42670;SDS011;28283;55.426;37.756;2023-06-14T13:38:28;2.85;;;1.70;;
42670;SDS011;28283;55.426;37.756;2023-06-14T13:43:28;5.75;;;2.20;;
42670;SDS011;28283;55.426;37.756;2023-06-14T13:48:29;8.70;;;1.80;;
42670;SDS011;28283;55.426;37.756;2023-06-14T13:53:30;2.10;;;1.45;;
42670;SDS011;28283;55.426;37.756;2023-06-14T13:58:30;4.82;;;1.70;;
42670;SDS011;28283;55.426;37.756;2023-06-14T14:03:31;6.15;;;1.40;;
42670;SDS011;28283;55.426;37.756;2023-06-14T14:08:32;2.45;;;1.38;;
42670;SDS011;28283;55.426;37.756;2023-06-14T14:13:33;6.53;;;1.80;;
42670;SDS011;28283;55.426;37.756;2023-06-14T14:18:36;2.78;;;1.60;;
42670;SDS011;28283;55.426;37.756;2023-06-14T14:23:37;1.75;;;1.48;;
42670;SDS011;28283;55.426;37.756;2023-06-14T14:28:38;3.25;;;1.52;;
42670;SDS011;28283;55.426;37.756;2023-06-14T14:33:38;4.60;;;1.73;;
42670;SDS011;28283;55.426;37.756;2023-06-14T14:38:39;5.70;;;1.63;;
42670;SDS011;28283;55.426;37.756;2023-06-14T14:43:40;6.78;;;1.60;;
42670;SDS011;28283;55.426;37.756;2023-06-14T14:48:40;4.15;;;1.98;;
42670;SDS011;28283;55.426;37.756;2023-06-14T14:53:41;3.35;;;1.55;;
42670;SDS011;28283;55.426;37.756;2023-06-14T14:58:41;6.53;;;2.45;;
42670;SDS011;28283;55.426;37.756;2023-06-14T15:03:42;4.00;;;1.60;;
42670;SDS011;28283;55.426;37.756;2023-06-14T15:08:43;5.05;;;1.80;;
42670;SDS011;28283;55.426;37.756;2023-06-14T15:13:44;2.92;;;1.88;;
42670;SDS011;28283;55.426;37.756;2023-06-14T15:18:44;4.05;;;1.90;;
42670;SDS011;28283;55.426;37.756;2023-06-14T15:23:45;2.47;;;1.92;;
42670;SDS011;28283;55.426;37.756;2023-06-14T15:28:46;2.88;;;1.90;;
42670;SDS011;28283;55.426;37.756;2023-06-14T15:33:46;8.20;;;2.17;;
42670;SDS011;28283;55.426;37.756;2023-06-14T15:38:47;9.30;;;2.38;;
42670;SDS011;28283;55.426;37.756;2023-06-14T15:43:48;4.68;;;1.80;;
42670;SDS011;28283;55.426;37.756;2023-06-14T15:48:48;6.97;;;1.60;;
42670;SDS011;28283;55.426;37.756;2023-06-14T15:53:49;3.03;;;1.60;;
42670;SDS011;28283;55.426;37.756;2023-06-14T15:58:49;4.35;;;1.45;;
42670;SDS011;28283;55.426;37.756;2023-06-14T16:03:50;1.48;;;1.17;;
42670;SDS011;28283;55.426;37.756;2023-06-14T16:08:51;3.30;;;1.80;;
42670;SDS011;28283;55.426;37.756;2023-06-14T16:13:52;1.88;;;0.85;;
42670;SDS011;28283;55.426;37.756;2023-06-14T16:18:53;4.30;;;1.40;;
42670;SDS011;28283;55.426;37.756;2023-06-14T16:23:54;2.13;;;1.55;;
42670;SDS011;28283;55.426;37.756;2023-06-14T16:28:54;4.38;;;1.60;;
42670;SDS011;28283;55.426;37.756;2023-06-14T16:33:55;1.77;;;1.55;;
42670;SDS011;28283;55.426;37.756;2023-06-14T16:38:56;3.40;;;1.52;;
42670;SDS011;28283;55.426;37.756;2023-06-14T16:43:57;5.78;;;1.45;;
42670;SDS011;28283;55.426;37.756;2023-06-14T16:48:58;2.08;;;1.27;;
42670;SDS011;28283;55.426;37.756;2023-06-14T16:53:59;3.63;;;1.42;;
42670;SDS011;28283;55.426;37.756;2023-06-14T16:59:00;3.72;;;1.60;;
42670;SDS011;28283;55.426;37.756;2023-06-14T17:04:01;5.03;;;1.88;;
42670;SDS011;28283;55.426;37.756;2023-06-14T17:09:02;6.30;;;2.10;;
42670;SDS011;28283;55.426;37.756;2023-06-14T17:14:03;9.05;;;5.55;;
42670;SDS011;28283;55.426;37.756;2023-06-14T17:19:06;6.97;;;4.20;;
42670;SDS011;28283;55.426;37.756;2023-06-14T17:24:06;6.40;;;3.70;;
42670;SDS011;28283;55.426;37.756;2023-06-14T17:29:07;3.80;;;2.75;;
42670;SDS011;28283;55.426;37.756;2023-06-14T17:34:08;8.25;;;4.03;;
42670;SDS011;28283;55.426;37.756;2023-06-14T17:39:08;11.90;;;4.57;;
42670;SDS011;28283;55.426;37.756;2023-06-14T17:44:09;9.80;;;3.60;;
42670;SDS011;28283;55.426;37.756;2023-06-14T17:49:10;8.65;;;4.50;;
42670;SDS011;28283;55.426;37.756;2023-06-14T17:54:10;7.40;;;4.55;;
42670;SDS011;28283;55.426;37.756;2023-06-14T17:59:11;6.30;;;2.60;;
42670;SDS011;28283;55.426;37.756;2023-06-14T18:04:12;5.25;;;2.50;;
42670;SDS011;28283;55.426;37.756;2023-06-14T18:09:13;3.05;;;2.55;;
42670;SDS011;28283;55.426;37.756;2023-06-14T18:14:15;7.88;;;4.00;;
42670;SDS011;28283;55.426;37.756;2023-06-14T18:19:16;7.50;;;4.25;;
42670;SDS011;28283;55.426;37.756;2023-06-14T18:24:17;9.13;;;3.90;;
42670;SDS011;28283;55.426;37.756;2023-06-14T18:29:18;8.75;;;3.00;;
42670;SDS011;28283;55.426;37.756;2023-06-14T18:34:19;6.50;;;2.80;;
42670;SDS011;28283;55.426;37.756;2023-06-14T18:39:21;6.93;;;3.10;;
42670;SDS011;28283;55.426;37.756;2023-06-14T18:44:22;6.47;;;3.40;;
42670;SDS011;28283;55.426;37.756;2023-06-14T18:49:22;4.68;;;3.42;;
42670;SDS011;28283;55.426;37.756;2023-06-14T18:54:23;6.55;;;3.60;;
42670;SDS011;28283;55.426;37.756;2023-06-14T18:59:23;11.50;;;3.67;;
42670;SDS011;28283;55.426;37.756;2023-06-14T19:04:25;9.85;;;3.65;;
42670;SDS011;28283;55.426;37.756;2023-06-14T19:09:26;6.05;;;3.70;;
42670;SDS011;28283;55.426;37.756;2023-06-14T19:14:27;11.18;;;4.00;;
42670;SDS011;28283;55.426;37.756;2023-06-14T19:19:27;13.45;;;3.72;;
42670;SDS011;28283;55.426;37.756;2023-06-14T19:24:28;9.18;;;3.65;;
42670;SDS011;28283;55.426;37.756;2023-06-14T19:29:29;6.93;;;3.90;;
42670;SDS011;28283;55.426;37.756;2023-06-14T19:34:32;9.23;;;4.47;;
42670;SDS011;28283;55.426;37.756;2023-06-14T19:44:34;16.77;;;4.65;;
42670;SDS011;28283;55.426;37.756;2023-06-14T19:49:34;7.20;;;4.22;;
42670;SDS011;28283;55.426;37.756;2023-06-14T19:59:35;9.98;;;4.43;;
42670;SDS011;28283;55.426;37.756;2023-06-14T20:04:36;5.65;;;4.78;;
42670;SDS011;28283;55.426;37.756;2023-06-14T20:14:37;7.00;;;4.90;;
42670;SDS011;28283;55.426;37.756;2023-06-14T20:24:39;16.63;;;6.28;;
42670;SDS011;28283;55.426;37.756;2023-06-14T20:29:40;12.85;;;6.20;;
42670;SDS011;28283;55.426;37.756;2023-06-14T20:39:41;12.03;;;4.80;;
42670;SDS011;28283;55.426;37.756;2023-06-14T20:49:42;15.30;;;4.70;;
42670;SDS011;28283;55.426;37.756;2023-06-14T20:54:44;5.60;;;4.30;;
42670;SDS011;28283;55.426;37.756;2023-06-14T20:59:47;10.65;;;5.53;;
42670;SDS011;28283;55.426;37.756;2023-06-14T21:04:49;14.10;;;5.70;;
42670;SDS011;28283;55.426;37.756;2023-06-14T21:14:50;9.20;;;5.63;;
42670;SDS011;28283;55.426;37.756;2023-06-14T21:24:52;12.48;;;5.10;;
42670;SDS011;28283;55.426;37.756;2023-06-14T21:29:52;10.52;;;5.28;;
42670;SDS011;28283;55.426;37.756;2023-06-14T21:34:53;11.68;;;5.03;;
42670;SDS011;28283;55.426;37.756;2023-06-14T21:39:54;7.30;;;5.07;;
42670;SDS011;28283;55.426;37.756;2023-06-14T21:49:56;22.27;;;6.13;;
42670;SDS011;28283;55.426;37.756;2023-06-14T21:54:56;14.63;;;5.55;;
42670;SDS011;28283;55.426;37.756;2023-06-14T22:04:57;14.00;;;5.70;;
42670;SDS011;28283;55.426;37.756;2023-06-14T22:09:58;10.20;;;5.05;;
42670;SDS011;28283;55.426;37.756;2023-06-14T22:14:59;10.05;;;4.55;;
42670;SDS011;28283;55.426;37.756;2023-06-14T22:20:05;16.95;;;4.85;;
42670;SDS011;28283;55.426;37.756;2023-06-14T22:25:07;14.48;;;5.18;;
42670;SDS011;28283;55.426;37.756;2023-06-14T22:30:08;16.92;;;5.03;;
42670;SDS011;28283;55.426;37.756;2023-06-14T22:35:09;14.13;;;6.05;;
42670;SDS011;28283;55.426;37.756;2023-06-14T22:40:10;18.33;;;5.45;;
42670;SDS011;28283;55.426;37.756;2023-06-14T22:50:14;22.95;;;5.70;;
42670;SDS011;28283;55.426;37.756;2023-06-14T22:55:14;27.25;;;6.43;;
42670;SDS011;28283;55.426;37.756;2023-06-14T23:00:15;22.02;;;5.97;;
42670;SDS011;28283;55.426;37.756;2023-06-14T23:05:17;17.83;;;5.35;;
42670;SDS011;28283;55.426;37.756;2023-06-14T23:10:18;21.08;;;5.53;;
42670;SDS011;28283;55.426;37.756;2023-06-14T23:15:22;11.25;;;4.60;;
42670;SDS011;28283;55.426;37.756;2023-06-14T23:20:23;12.80;;;5.55;;
42670;SDS011;28283;55.426;37.756;2023-06-14T23:30:25;18.20;;;4.53;;
42670;SDS011;28283;55.426;37.756;2023-06-14T23:35:26;10.00;;;4.95;;
42670;SDS011;28283;55.426;37.756;2023-06-14T23:40:27;11.68;;;4.88;;
42670;SDS011;28283;55.426;37.756;2023-06-14T23:45:28;7.68;;;4.93;;
42670;SDS011;28283;55.426;37.756;2023-06-14T23:50:29;14.27;;;5.20;;
42670;SDS011;28283;55.426;37.756;2023-06-14T23:55:29;13.10;;;5.50;;
